Time;durP1;ratioP1;P1;durP2;ratioP2;P2;SDS_P1;SDS_P2;PMS_P1;PMS_P2;Temp;Humidity;BMP_temperature;BMP_pressure;BME280_temperature;BME280_humidity;BME280_pressure;Samples;Min_cycle;Max_cycle;Signal;HPM_P1;HPM_P2
2021/11/29 00:01:23;;;;;;;1.50;1.50;;;0.80;99.90;;;;;;5071860;28;20216;-78
2021/11/29 00:03:51;;;;;;;2.05;1.58;;;0.80;99.90;;;;;;5073031;28;20220;-78
2021/11/29 00:06:18;;;;;;;1.55;1.50;;;0.70;99.90;;;;;;5073030;28;20193;-78
2021/11/29 00:08:45;;;;;;;1.05;1.05;;;0.70;99.90;;;;;;5072540;28;20200;-77
2021/11/29 00:11:12;;;;;;;0.40;0.30;;;0.70;99.90;;;;;;5072625;28;20222;-79
2021/11/29 00:13:39;;;;;;;0.40;0.30;;;0.60;99.90;;;;;;5072637;28;20583;-78
2021/11/29 00:16:08;;;;;;;0.40;0.40;;;0.60;99.90;;;;;;5072710;28;20192;-79
2021/11/29 00:18:36;;;;;;;0.45;0.45;;;0.60;99.90;;;;;;5072671;28;20206;-79
2021/11/29 00:21:04;;;;;;;1.05;0.82;;;0.50;99.90;;;;;;5072496;28;20214;-78
2021/11/29 00:23:31;;;;;;;12.60;1.25;;;0.50;99.90;;;;;;5071341;28;20227;-79
2021/11/29 00:25:58;;;;;;;0.40;0.40;;;0.50;99.90;;;;;;5072923;28;20211;-79
2021/11/29 00:28:25;;;;;;;0.50;0.40;;;0.50;99.90;;;;;;5073023;28;20197;-78
2021/11/29 00:30:52;;;;;;;0.40;0.40;;;0.40;99.90;;;;;;5071640;28;20199;-79
2021/11/29 00:33:20;;;;;;;0.40;0.40;;;0.40;99.90;;;;;;5072881;28;20211;-79
2021/11/29 00:35:47;;;;;;;0.40;0.40;;;0.40;99.90;;;;;;5072521;28;20211;-79
2021/11/29 00:38:14;;;;;;;0.40;0.40;;;0.40;99.90;;;;;;5072155;28;20624;-79
2021/11/29 00:40:43;;;;;;;0.40;0.40;;;0.40;99.90;;;;;;5072414;28;20217;-79
2021/11/29 00:43:10;;;;;;;3.55;3.25;;;0.30;99.90;;;;;;5072604;28;20214;-79
2021/11/29 00:45:37;;;;;;;0.40;0.40;;;0.30;99.90;;;;;;5072673;28;20202;-79
2021/11/29 00:48:05;;;;;;;0.40;0.38;;;0.30;99.90;;;;;;5072173;28;20207;-79
2021/11/29 00:50:37;;;;;;;1.55;1.45;;;0.30;99.90;;;;;;5071786;28;20197;-79
2021/11/29 00:53:04;;;;;;;3.08;2.97;;;0.30;99.90;;;;;;5071899;28;20214;-79
2021/11/29 00:55:31;;;;;;;0.75;0.75;;;0.30;99.90;;;;;;5071981;28;20192;-79
2021/11/29 00:57:58;;;;;;;0.40;0.40;;;0.30;99.90;;;;;;5072237;28;20204;-78
2021/11/29 01:00:27;;;;;;;0.40;0.40;;;0.30;99.90;;;;;;5071595;28;20311;-79
2021/11/29 01:02:53;;;;;;;0.40;0.40;;;0.30;99.90;;;;;;5071901;28;20229;-79
2021/11/29 01:05:21;;;;;;;0.57;0.57;;;0.30;99.90;;;;;;5072560;28;20574;-75
2021/11/29 01:07:50;;;;;;;0.40;0.40;;;0.30;99.90;;;;;;5073229;28;20199;-79
2021/11/29 01:10:18;;;;;;;1.60;1.60;;;0.20;99.90;;;;;;5070973;28;20201;-78
2021/11/29 01:12:46;;;;;;;0.40;0.40;;;0.20;99.90;;;;;;5071940;28;20218;-79
2021/11/29 01:15:15;;;;;;;0.40;0.40;;;0.20;99.90;;;;;;5072354;28;20195;-79
2021/11/29 01:17:42;;;;;;;1.90;1.80;;;0.10;99.90;;;;;;5072362;28;20192;-79
2021/11/29 01:20:10;;;;;;;0.52;0.52;;;0.20;99.90;;;;;;5071298;28;20214;-79
2021/11/29 01:22:38;;;;;;;0.77;0.77;;;0.10;99.90;;;;;;5071597;28;20216;-79
2021/11/29 01:25:08;;;;;;;0.40;0.40;;;0.10;99.90;;;;;;5075053;28;20180;-79
2021/11/29 01:27:34;;;;;;;0.40;0.40;;;0.10;99.90;;;;;;5075422;28;20289;-79
2021/11/29 01:30:01;;;;;;;0.40;0.38;;;0.10;99.90;;;;;;5074748;28;20679;-79
2021/11/29 01:32:28;;;;;;;0.40;0.40;;;0.10;99.90;;;;;;5075360;28;20198;-79
2021/11/29 01:34:55;;;;;;;0.40;0.40;;;0.10;99.90;;;;;;5075223;28;20192;-79
2021/11/29 01:37:22;;;;;;;0.70;0.70;;;0.10;99.90;;;;;;5075281;28;20198;-79
2021/11/29 01:39:49;;;;;;;1.13;0.60;;;0.10;99.90;;;;;;5074488;28;20215;-79
2021/11/29 01:42:17;;;;;;;0.57;0.57;;;0.00;99.90;;;;;;5074925;28;20675;-76
2021/11/29 01:44:44;;;;;;;0.40;0.38;;;0.00;99.90;;;;;;5075345;28;20208;-78
2021/11/29 01:47:11;;;;;;;0.40;0.40;;;0.00;99.90;;;;;;5074640;28;20201;-79
2021/11/29 01:49:37;;;;;;;1.40;0.82;;;0.10;99.90;;;;;;5074911;28;20544;-79
2021/11/29 01:52:05;;;;;;;0.40;0.40;;;0.10;99.90;;;;;;5074169;28;20204;-78
2021/11/29 01:54:32;;;;;;;0.90;0.90;;;0.10;99.90;;;;;;5074960;28;20215;-79
2021/11/29 01:56:59;;;;;;;0.75;0.75;;;0.00;99.90;;;;;;5074943;28;20199;-79
2021/11/29 01:59:27;;;;;;;0.40;0.40;;;0.00;99.90;;;;;;5074521;28;20207;-76
2021/11/29 02:01:54;;;;;;;0.40;0.40;;;0.00;99.90;;;;;;5074601;28;20224;-79
2021/11/29 02:04:21;;;;;;;0.40;0.30;;;-0.10;99.90;;;;;;5074745;28;20220;-77
2021/11/29 02:06:48;;;;;;;0.40;0.40;;;0.00;99.90;;;;;;5074341;28;20196;-79
2021/11/29 02:09:15;;;;;;;1.55;1.45;;;0.00;99.90;;;;;;5073939;28;20204;-78
2021/11/29 02:11:42;;;;;;;0.70;0.70;;;0.00;99.90;;;;;;5074193;28;20277;-79
2021/11/29 02:14:10;;;;;;;1.75;1.65;;;0.00;99.90;;;;;;5074271;28;20214;-78
2021/11/29 02:16:38;;;;;;;1.73;1.63;;;0.00;99.90;;;;;;5074272;28;20208;-79
2021/11/29 02:19:07;;;;;;;1.23;1.13;;;0.00;99.90;;;;;;5074234;28;20198;-79
2021/11/29 02:21:35;;;;;;;0.40;0.40;;;0.10;99.90;;;;;;5074408;28;20218;-78
2021/11/29 02:24:05;;;;;;;1.63;1.63;;;0.10;99.90;;;;;;5073653;28;20313;-79
2021/11/29 02:26:35;;;;;;;0.50;0.50;;;0.00;99.90;;;;;;5074083;28;20199;-79
2021/11/29 02:29:06;;;;;;;2.22;2.13;;;0.00;99.90;;;;;;5073864;28;20178;-78
2021/11/29 02:31:35;;;;;;;2.50;0.73;;;0.00;99.90;;;;;;5074137;28;20539;-78
2021/11/29 02:34:07;;;;;;;1.08;0.70;;;0.00;99.90;;;;;;5074340;28;20214;-78
2021/11/29 02:36:36;;;;;;;2.88;2.67;;;0.00;99.90;;;;;;5074112;28;20186;-78
2021/11/29 02:39:04;;;;;;;3.15;0.80;;;0.10;99.90;;;;;;5073248;28;20205;-78
2021/11/29 02:41:30;;;;;;;0.40;0.40;;;0.20;99.90;;;;;;5073945;28;20220;-76
2021/11/29 02:43:57;;;;;;;0.50;0.50;;;0.20;99.90;;;;;;5073659;28;20638;-79
2021/11/29 02:46:24;;;;;;;0.40;0.40;;;0.30;99.90;;;;;;5073842;28;20201;-78
2021/11/29 02:48:53;;;;;;;1.52;1.42;;;0.40;99.90;;;;;;5073701;28;20199;-78
2021/11/29 02:51:26;;;;;;;0.73;0.73;;;0.40;99.90;;;;;;5073641;28;20190;-79
2021/11/29 02:53:58;;;;;;;0.40;0.40;;;0.40;99.90;;;;;;5073564;28;20216;-79
2021/11/29 02:56:25;;;;;;;1.25;1.25;;;0.30;99.90;;;;;;5073958;28;20677;-78
2021/11/29 02:58:51;;;;;;;1.42;1.33;;;0.40;99.90;;;;;;5073069;28;20216;-79
2021/11/29 03:01:18;;;;;;;0.40;0.40;;;0.40;99.90;;;;;;5073578;28;20223;-79
2021/11/29 03:03:47;;;;;;;0.50;0.50;;;0.30;99.90;;;;;;5072648;28;20735;-79
2021/11/29 03:06:14;;;;;;;0.40;0.40;;;0.30;99.90;;;;;;5073280;28;20293;-78
2021/11/29 03:08:41;;;;;;;1.45;0.90;;;0.20;99.90;;;;;;5073051;28;20199;-78
2021/11/29 03:11:09;;;;;;;0.40;0.40;;;0.20;99.90;;;;;;5073472;28;20221;-79
2021/11/29 03:13:36;;;;;;;0.88;0.65;;;0.20;99.90;;;;;;5073247;28;20217;-78
2021/11/29 03:16:04;;;;;;;1.10;1.10;;;0.20;99.90;;;;;;5073586;28;20283;-79
2021/11/29 03:18:31;;;;;;;0.60;0.60;;;0.20;99.90;;;;;;5072769;28;20197;-78
2021/11/29 03:20:58;;;;;;;0.50;0.50;;;0.20;99.90;;;;;;5072906;28;20211;-78
2021/11/29 03:23:25;;;;;;;0.70;0.70;;;0.20;99.90;;;;;;5072292;28;20228;-78
2021/11/29 03:25:52;;;;;;;2.17;2.00;;;0.10;99.90;;;;;;5073596;28;20200;-78
2021/11/29 03:28:21;;;;;;;0.90;0.90;;;0.10;99.90;;;;;;5072836;28;20198;-79
2021/11/29 03:30:48;;;;;;;0.85;0.85;;;0.10;99.90;;;;;;5072495;28;20548;-78
2021/11/29 03:33:15;;;;;;;0.70;0.70;;;0.10;99.90;;;;;;5072515;28;20220;-78
2021/11/29 03:35:41;;;;;;;1.50;1.45;;;0.10;99.90;;;;;;5072272;28;20241;-78
2021/11/29 03:38:09;;;;;;;1.45;1.45;;;0.20;99.90;;;;;;5072472;28;20201;-78
2021/11/29 03:40:36;;;;;;;1.58;1.48;;;0.20;99.90;;;;;;5071827;28;20212;-79
2021/11/29 03:43:03;;;;;;;0.40;0.40;;;0.20;99.90;;;;;;5072457;28;20235;-80
2021/11/29 03:45:32;;;;;;;0.70;0.70;;;0.30;99.90;;;;;;5071919;28;20689;-79
2021/11/29 03:48:00;;;;;;;0.85;0.85;;;0.30;99.90;;;;;;5072482;28;20574;-78
2021/11/29 03:50:27;;;;;;;2.47;1.30;;;0.30;99.90;;;;;;5071863;28;20203;-78
2021/11/29 03:52:54;;;;;;;0.70;0.70;;;0.40;99.90;;;;;;5072195;28;20681;-78
2021/11/29 03:55:21;;;;;;;0.80;0.80;;;0.40;99.90;;;;;;5072187;28;20199;-75
2021/11/29 03:57:48;;;;;;;1.25;1.15;;;0.40;99.90;;;;;;5072526;28;20204;-79
2021/11/29 04:00:16;;;;;;;1.00;1.00;;;0.40;99.90;;;;;;5071690;28;20214;-79
2021/11/29 04:02:44;;;;;;;1.23;1.10;;;0.30;99.90;;;;;;5072129;28;20216;-79
2021/11/29 04:05:11;;;;;;;0.40;0.40;;;0.30;99.90;;;;;;5072276;28;20191;-78
2021/11/29 04:07:38;;;;;;;1.45;1.15;;;0.30;99.90;;;;;;5072330;28;20203;-79
2021/11/29 04:10:06;;;;;;;0.40;0.40;;;0.30;99.90;;;;;;5071895;28;20200;-79
2021/11/29 04:12:32;;;;;;;1.02;0.90;;;0.20;99.90;;;;;;5072322;28;20380;-79
2021/11/29 04:14:59;;;;;;;0.40;0.40;;;0.30;99.90;;;;;;5072120;28;20671;-79
2021/11/29 04:17:26;;;;;;;0.40;0.40;;;0.20;99.90;;;;;;5071608;28;20192;-78
2021/11/29 04:19:54;;;;;;;1.60;0.85;;;0.20;99.90;;;;;;5072033;28;20239;-78
2021/11/29 04:22:22;;;;;;;0.40;0.40;;;0.30;99.90;;;;;;5072664;28;20709;-79
2021/11/29 04:24:49;;;;;;;0.57;0.57;;;0.30;99.90;;;;;;5072062;28;20311;-78
2021/11/29 04:27:16;;;;;;;0.40;0.40;;;0.30;99.90;;;;;;5071933;28;20194;-78
2021/11/29 04:29:45;;;;;;;2.67;2.47;;;0.30;99.90;;;;;;5072291;28;20241;-78
2021/11/29 04:32:12;;;;;;;0.45;0.45;;;0.30;99.90;;;;;;5072149;28;20192;-77
2021/11/29 04:34:39;;;;;;;2.47;1.20;;;0.30;99.90;;;;;;5072338;28;20212;-79
2021/11/29 04:37:08;;;;;;;0.40;0.40;;;0.30;99.90;;;;;;5072072;28;20202;-78
2021/11/29 04:39:36;;;;;;;0.40;0.40;;;0.30;99.90;;;;;;5071967;28;20205;-79
2021/11/29 04:42:03;;;;;;;0.40;0.40;;;0.30;99.90;;;;;;5072190;28;20619;-78
2021/11/29 04:44:30;;;;;;;0.73;0.73;;;0.30;99.90;;;;;;5071969;28;20209;-78
2021/11/29 04:46:57;;;;;;;0.60;0.60;;;0.30;99.90;;;;;;5072220;28;20566;-79
2021/11/29 04:49:24;;;;;;;0.40;0.40;;;0.30;99.90;;;;;;5071703;28;20663;-78
2021/11/29 04:51:51;;;;;;;10.93;2.33;;;0.40;99.90;;;;;;5072242;28;20563;-78
2021/11/29 04:54:19;;;;;;;0.40;0.40;;;0.30;99.90;;;;;;5071471;28;20222;-78
2021/11/29 04:56:46;;;;;;;0.40;0.40;;;0.30;99.90;;;;;;5071870;28;20197;-78
2021/11/29 04:59:13;;;;;;;0.40;0.40;;;0.30;99.90;;;;;;5074372;28;20265;-78
2021/11/29 05:01:41;;;;;;;0.45;0.45;;;0.40;99.90;;;;;;5076297;28;20608;-78
2021/11/29 05:04:08;;;;;;;0.70;0.68;;;0.50;99.90;;;;;;5075976;28;20224;-78
2021/11/29 05:06:37;;;;;;;2.45;2.35;;;0.50;99.90;;;;;;5075775;28;20197;-79
2021/11/29 05:09:05;;;;;;;0.40;0.40;;;0.60;99.90;;;;;;5075370;28;20661;-78
2021/11/29 05:11:33;;;;;;;0.40;0.40;;;0.60;99.90;;;;;;5075654;28;20196;-77
2021/11/29 05:14:00;;;;;;;0.40;0.40;;;0.60;99.90;;;;;;5075537;28;20327;-78
2021/11/29 05:16:27;;;;;;;0.52;0.52;;;0.60;99.90;;;;;;5075488;28;20193;-77
2021/11/29 05:18:54;;;;;;;0.40;0.35;;;0.60;99.90;;;;;;5074971;28;20206;-79
2021/11/29 05:21:21;;;;;;;0.40;0.40;;;0.70;99.90;;;;;;5075612;28;20220;-79
2021/11/29 05:23:48;;;;;;;1.60;1.50;;;0.70;99.90;;;;;;5075224;28;20231;-79
2021/11/29 05:26:18;;;;;;;0.40;0.40;;;0.70;99.90;;;;;;5075841;28;20203;-78
2021/11/29 05:28:46;;;;;;;0.40;0.40;;;0.80;99.90;;;;;;5075261;28;20197;-77
2021/11/29 05:31:13;;;;;;;0.40;0.40;;;0.80;99.90;;;;;;5076032;28;20289;-79
2021/11/29 05:33:40;;;;;;;0.40;0.30;;;0.90;99.90;;;;;;5075598;28;20724;-79
2021/11/29 05:36:07;;;;;;;1.63;1.52;;;0.90;99.90;;;;;;5075920;28;20202;-79
2021/11/29 05:38:34;;;;;;;0.40;0.40;;;0.90;99.90;;;;;;5076300;28;20198;-80
2021/11/29 05:41:01;;;;;;;1.45;1.35;;;0.90;99.90;;;;;;5075181;28;20207;-79
2021/11/29 05:43:28;;;;;;;0.40;0.30;;;1.00;99.90;;;;;;5075854;28;20224;-79
2021/11/29 05:45:57;;;;;;;0.40;0.40;;;1.00;99.90;;;;;;5074896;28;20285;-79
2021/11/29 05:48:24;;;;;;;2.05;1.95;;;1.10;99.90;;;;;;5075105;28;20208;-79
2021/11/29 05:50:52;;;;;;;0.60;0.60;;;1.10;99.90;;;;;;5074607;28;20902;-79
2021/11/29 05:53:18;;;;;;;0.40;0.40;;;1.10;99.90;;;;;;5076340;28;20227;-79
2021/11/29 05:55:46;;;;;;;0.50;0.50;;;1.20;99.90;;;;;;5076817;28;20201;-79
2021/11/29 05:58:13;;;;;;;0.40;0.40;;;1.20;99.90;;;;;;5075984;28;20196;-77
2021/11/29 06:00:40;;;;;;;0.40;0.40;;;1.20;99.90;;;;;;5074114;28;20211;-82
2021/11/29 06:03:08;;;;;;;0.40;0.40;;;1.20;99.90;;;;;;5075173;28;20243;-78
2021/11/29 06:05:35;;;;;;;0.40;0.40;;;1.30;99.90;;;;;;5076196;28;20197;-78
2021/11/29 06:08:02;;;;;;;0.60;0.60;;;1.30;99.90;;;;;;5075810;28;20192;-77
2021/11/29 06:10:29;;;;;;;0.68;0.50;;;1.40;99.90;;;;;;5072970;28;20200;-78
2021/11/29 06:12:55;;;;;;;0.40;0.38;;;1.40;99.90;;;;;;5073609;28;20578;-78
2021/11/29 06:15:22;;;;;;;0.40;0.40;;;1.40;99.90;;;;;;5073244;28;20198;-77
2021/11/29 06:17:49;;;;;;;0.50;0.50;;;1.40;99.90;;;;;;5073808;28;20203;-78
2021/11/29 06:20:21;;;;;;;0.40;0.30;;;1.40;99.90;;;;;;5073211;28;20195;-78
2021/11/29 06:22:49;;;;;;;0.57;0.40;;;1.50;99.90;;;;;;5073440;28;20794;-78
2021/11/29 06:25:16;;;;;;;0.40;0.40;;;1.50;99.90;;;;;;5073875;28;20354;-77
2021/11/29 06:27:43;;;;;;;0.80;0.80;;;1.50;99.90;;;;;;5085811;28;20288;-78
2021/11/29 06:30:11;;;;;;;1.40;0.70;;;1.60;99.90;;;;;;5092736;28;20200;-78
2021/11/29 06:32:38;;;;;;;0.40;0.40;;;1.60;99.90;;;;;;5092812;28;20220;-79
2021/11/29 06:35:06;;;;;;;0.50;0.50;;;1.60;99.90;;;;;;5092267;28;20234;-77
2021/11/29 06:37:35;;;;;;;0.77;0.77;;;1.70;99.90;;;;;;5092846;28;20201;-78
2021/11/29 06:40:03;;;;;;;0.60;0.60;;;1.70;99.90;;;;;;5092454;28;20250;-77
2021/11/29 06:42:30;;;;;;;0.70;0.70;;;1.70;99.90;;;;;;5092939;28;20236;-78
2021/11/29 06:44:56;;;;;;;0.70;0.70;;;1.70;99.90;;;;;;5092442;28;20204;-77
2021/11/29 06:47:23;;;;;;;0.40;0.40;;;1.70;99.90;;;;;;5092163;28;20192;-77
2021/11/29 06:49:50;;;;;;;0.40;0.40;;;1.70;99.90;;;;;;5092155;28;20200;-78
2021/11/29 06:52:17;;;;;;;0.73;0.73;;;1.70;99.90;;;;;;5092103;28;20184;-77
2021/11/29 06:54:48;;;;;;;0.50;0.50;;;1.70;99.90;;;;;;5085692;28;20198;-77
2021/11/29 06:57:16;;;;;;;0.40;0.40;;;1.70;99.90;;;;;;5085508;28;20629;-77
2021/11/29 06:59:44;;;;;;;2.28;2.08;;;1.80;99.90;;;;;;5086271;28;20189;-77
2021/11/29 07:02:12;;;;;;;2.25;0.98;;;1.80;99.90;;;;;;5092095;28;20291;-77
2021/11/29 07:04:38;;;;;;;0.40;0.40;;;1.80;99.90;;;;;;5086718;28;20217;-78
2021/11/29 07:07:06;;;;;;;0.40;0.40;;;1.80;99.90;;;;;;5083585;28;20280;-77
2021/11/29 07:09:33;;;;;;;0.40;0.40;;;1.80;99.90;;;;;;5092139;28;20199;-78
2021/11/29 07:12:01;;;;;;;0.40;0.40;;;1.80;99.90;;;;;;5092397;28;20200;-77
2021/11/29 07:14:29;;;;;;;0.60;0.60;;;1.80;99.90;;;;;;5092248;28;20274;-77
2021/11/29 07:16:56;;;;;;;0.40;0.40;;;1.80;99.90;;;;;;5091854;28;20195;-77
2021/11/29 07:19:23;;;;;;;0.40;0.40;;;1.80;99.90;;;;;;5099578;28;20206;-78
2021/11/29 07:21:50;;;;;;;0.40;0.40;;;1.90;99.90;;;;;;5102523;28;20227;-78
2021/11/29 07:24:17;;;;;;;1.75;1.17;;;1.90;99.90;;;;;;5091368;28;20215;-77
2021/11/29 07:26:45;;;;;;;0.50;0.50;;;2.00;99.90;;;;;;5092018;28;20223;-79
2021/11/29 07:29:14;;;;;;;0.40;0.40;;;2.00;99.90;;;;;;5091955;28;20206;-79
2021/11/29 07:31:41;;;;;;;0.40;0.40;;;2.00;99.90;;;;;;5090812;28;20200;-79
2021/11/29 07:34:08;;;;;;;0.40;0.40;;;2.00;99.90;;;;;;5092014;28;20226;-78
2021/11/29 07:36:36;;;;;;;0.77;0.77;;;2.00;99.90;;;;;;5091905;28;20564;-77
2021/11/29 07:39:04;;;;;;;0.40;0.40;;;2.00;99.90;;;;;;5091743;28;20200;-77
2021/11/29 07:41:31;;;;;;;0.40;0.40;;;2.10;99.90;;;;;;5091870;28;20198;-78
2021/11/29 07:43:58;;;;;;;0.80;0.80;;;2.10;99.90;;;;;;5088644;28;20216;-79
2021/11/29 07:46:26;;;;;;;0.73;0.73;;;2.10;99.90;;;;;;5080526;28;20188;-75
2021/11/29 07:48:52;;;;;;;0.95;0.95;;;2.10;99.90;;;;;;5090825;28;20203;-77
2021/11/29 07:51:19;;;;;;;0.98;0.93;;;2.10;99.90;;;;;;5091649;28;20188;-77
2021/11/29 07:53:46;;;;;;;0.73;0.73;;;2.10;99.90;;;;;;5091378;28;20561;-77
2021/11/29 07:56:13;;;;;;;0.40;0.40;;;2.20;99.90;;;;;;5090540;28;20204;-77
2021/11/29 07:58:40;;;;;;;0.40;0.40;;;2.20;99.90;;;;;;5096164;22;20233;-78
2021/11/29 08:01:08;;;;;;;0.40;0.40;;;2.20;99.90;;;;;;5077556;28;20201;-77
2021/11/29 08:03:36;;;;;;;0.95;0.95;;;2.20;99.90;;;;;;5093753;28;20303;-78
2021/11/29 08:06:03;;;;;;;0.40;0.40;;;2.20;99.90;;;;;;5093720;28;20283;-79
2021/11/29 08:08:30;;;;;;;0.88;0.88;;;2.30;99.90;;;;;;5079033;28;20224;-77
2021/11/29 08:10:57;;;;;;;0.40;0.40;;;2.30;99.90;;;;;;5073424;28;20193;-76
2021/11/29 08:13:24;;;;;;;0.40;0.40;;;2.30;99.90;;;;;;5073901;28;20190;-78
2021/11/29 08:15:51;;;;;;;0.40;0.40;;;2.30;99.90;;;;;;5073302;28;20202;-78
2021/11/29 08:18:18;;;;;;;1.15;1.05;;;2.40;99.90;;;;;;5073454;28;20352;-78
2021/11/29 08:20:46;;;;;;;0.43;0.40;;;2.40;99.90;;;;;;5073639;28;20204;-77
2021/11/29 08:23:13;;;;;;;0.63;0.63;;;2.40;99.90;;;;;;5074388;28;20216;-78
2021/11/29 08:25:41;;;;;;;0.40;0.40;;;2.40;99.90;;;;;;5075030;28;20201;-79
2021/11/29 08:28:08;;;;;;;0.88;0.60;;;2.50;99.90;;;;;;5074758;28;20223;-79
2021/11/29 08:30:36;;;;;;;0.40;0.40;;;2.50;99.90;;;;;;5074777;28;20208;-78
2021/11/29 08:33:03;;;;;;;0.40;0.40;;;2.50;99.90;;;;;;5077430;28;20193;-78
2021/11/29 08:35:30;;;;;;;0.50;0.50;;;2.50;99.90;;;;;;5078960;28;20204;-78
2021/11/29 08:37:59;;;;;;;0.40;0.40;;;2.50;99.90;;;;;;5079013;28;20213;-80
2021/11/29 08:40:28;;;;;;;0.40;0.40;;;2.50;99.90;;;;;;5078969;28;20196;-79
2021/11/29 08:42:57;;;;;;;0.40;0.40;;;2.50;99.90;;;;;;5077903;28;20214;-80
2021/11/29 08:45:24;;;;;;;0.93;0.93;;;2.50;99.90;;;;;;5080786;28;20600;-79
2021/11/29 08:47:53;;;;;;;1.08;1.08;;;2.50;99.90;;;;;;5080058;28;20217;-77
2021/11/29 08:50:21;;;;;;;0.40;0.40;;;2.50;99.90;;;;;;5079206;28;20207;-79
2021/11/29 08:52:48;;;;;;;0.50;0.50;;;2.50;99.90;;;;;;5080004;28;20570;-79
2021/11/29 08:55:16;;;;;;;0.40;0.40;;;2.40;99.90;;;;;;5081284;28;20194;-79
2021/11/29 08:57:43;;;;;;;0.60;0.50;;;2.20;99.90;;;;;;5077054;28;20231;-79
2021/11/29 09:00:13;;;;;;;0.40;0.40;;;2.10;99.90;;;;;;5078151;28;20192;-79
2021/11/29 09:02:43;;;;;;;0.40;0.40;;;2.00;99.90;;;;;;5077737;28;20611;-79
2021/11/29 09:05:11;;;;;;;0.40;0.40;;;1.90;99.90;;;;;;5078091;28;20204;-80
2021/11/29 09:07:38;;;;;;;0.40;0.40;;;1.80;99.90;;;;;;5077775;28;20213;-80
2021/11/29 09:10:07;;;;;;;0.40;0.40;;;1.80;99.90;;;;;;5077791;28;20204;-79
2021/11/29 09:12:36;;;;;;;0.80;0.80;;;1.80;99.90;;;;;;5077375;28;20453;-79
2021/11/29 09:15:04;;;;;;;0.77;0.77;;;1.90;99.90;;;;;;5077702;28;20190;-77
2021/11/29 09:17:30;;;;;;;0.77;0.77;;;1.90;99.90;;;;;;5077393;28;20244;-79
2021/11/29 09:19:58;;;;;;;0.40;0.40;;;1.90;99.90;;;;;;5077122;28;20282;-79
2021/11/29 09:22:26;;;;;;;0.40;0.40;;;1.90;99.90;;;;;;5077144;28;20218;-80
2021/11/29 09:24:54;;;;;;;1.08;1.08;;;2.00;99.90;;;;;;5078490;28;20621;-79
2021/11/29 09:27:22;;;;;;;0.40;0.40;;;2.00;99.90;;;;;;5081355;28;20214;-78
2021/11/29 09:29:50;;;;;;;0.55;0.55;;;2.10;99.90;;;;;;5076861;28;20205;-78
2021/11/29 09:32:18;;;;;;;0.40;0.40;;;2.10;99.90;;;;;;5078155;28;20230;-80
2021/11/29 09:34:45;;;;;;;0.40;0.40;;;2.20;99.90;;;;;;5077430;28;20200;-79
2021/11/29 09:37:12;;;;;;;0.40;0.40;;;2.20;99.90;;;;;;5077634;28;20245;-79
2021/11/29 09:39:39;;;;;;;1.27;1.27;;;2.30;99.90;;;;;;5077879;28;20204;-78
2021/11/29 09:42:06;;;;;;;0.80;0.80;;;2.40;99.90;;;;;;5076927;28;20204;-79
2021/11/29 09:44:34;;;;;;;0.40;0.40;;;2.50;99.90;;;;;;5077140;28;20190;-79
2021/11/29 09:47:02;;;;;;;0.40;0.40;;;2.50;99.90;;;;;;5077605;28;20220;-79
2021/11/29 09:49:29;;;;;;;0.43;0.43;;;2.60;99.90;;;;;;5077199;28;20288;-79
2021/11/29 09:51:57;;;;;;;0.50;0.40;;;2.70;99.90;;;;;;5077546;28;20219;-79
2021/11/29 09:54:24;;;;;;;0.52;0.52;;;2.80;99.90;;;;;;5077555;28;20250;-78
2021/11/29 09:56:53;;;;;;;0.60;0.60;;;2.90;99.90;;;;;;5078071;28;20194;-78
2021/11/29 09:59:23;;;;;;;1.35;1.35;;;2.90;99.90;;;;;;5077196;28;20205;-80
2021/11/29 10:01:50;;;;;;;2.45;2.35;;;3.00;99.90;;;;;;5077752;28;20583;-80
2021/11/29 10:04:19;;;;;;;0.40;0.40;;;3.10;99.90;;;;;;5077172;28;20247;-80
2021/11/29 10:06:48;;;;;;;2.08;0.70;;;3.10;99.90;;;;;;5079115;28;20365;-80
2021/11/29 10:09:29;;;;;;;0.93;0.93;;;3.10;99.90;;;;;;5077203;28;20236;-80
2021/11/29 10:12:00;;;;;;;0.80;0.80;;;3.10;99.90;;;;;;5078550;28;20181;-80
2021/11/29 10:14:27;;;;;;;2.05;1.85;;;3.20;99.90;;;;;;5077458;28;20602;-78
2021/11/29 10:17:00;;;;;;;1.30;1.30;;;3.30;99.90;;;;;;5077421;28;20201;-80
2021/11/29 10:19:36;;;;;;;0.40;0.40;;;3.30;99.90;;;;;;5076733;28;20270;-80
2021/11/29 10:22:15;;;;;;;0.40;0.40;;;3.40;99.90;;;;;;5076813;28;20674;-79
2021/11/29 10:24:42;;;;;;;1.42;1.42;;;3.40;99.90;;;;;;5076163;28;20208;-80
2021/11/29 10:27:09;;;;;;;0.60;0.60;;;3.50;99.90;;;;;;5077627;28;20558;-79
2021/11/29 10:29:36;;;;;;;0.93;0.93;;;3.60;99.90;;;;;;5076127;28;20296;-81
2021/11/29 10:32:04;;;;;;;0.60;0.60;;;3.50;99.90;;;;;;5076727;28;20200;-80
2021/11/29 10:34:33;;;;;;;0.40;0.40;;;3.60;99.90;;;;;;5076833;28;20267;-80
2021/11/29 10:37:03;;;;;;;0.40;0.40;;;3.60;99.90;;;;;;5076916;28;20202;-80
2021/11/29 10:39:32;;;;;;;0.40;0.40;;;3.70;99.90;;;;;;5076328;28;20174;-80
2021/11/29 10:42:02;;;;;;;0.40;0.40;;;3.80;99.90;;;;;;5076922;28;20197;-77
2021/11/29 10:44:32;;;;;;;0.40;0.40;;;3.80;99.90;;;;;;5076543;28;20542;-80
2021/11/29 10:47:01;;;;;;;1.17;0.70;;;3.90;99.90;;;;;;5077105;28;20221;-80
2021/11/29 10:49:31;;;;;;;0.40;0.40;;;4.00;99.90;;;;;;5076904;28;20218;-80
2021/11/29 10:52:01;;;;;;;0.40;0.40;;;3.90;99.90;;;;;;5076872;28;20216;-79
2021/11/29 10:54:31;;;;;;;0.50;0.40;;;4.00;99.90;;;;;;5076512;28;20193;-80
2021/11/29 10:57:00;;;;;;;0.40;0.40;;;4.00;99.90;;;;;;5076676;28;20197;-80
2021/11/29 10:59:28;;;;;;;0.40;0.40;;;4.10;99.90;;;;;;5076347;28;20570;-80
2021/11/29 11:01:57;;;;;;;0.40;0.40;;;4.20;99.90;;;;;;5076808;28;20196;-81
2021/11/29 11:04:25;;;;;;;0.40;0.30;;;4.30;99.90;;;;;;5076288;28;20214;-81
2021/11/29 11:06:56;;;;;;;0.40;0.40;;;4.40;99.90;;;;;;5075856;28;20205;-79
2021/11/29 11:09:25;;;;;;;0.45;0.40;;;4.40;99.90;;;;;;5075111;28;20238;-80
2021/11/29 11:11:54;;;;;;;0.50;0.40;;;4.40;99.90;;;;;;5075981;28;20197;-81
2021/11/29 11:14:22;;;;;;;0.50;0.50;;;4.40;99.90;;;;;;5076282;28;20524;-80
2021/11/29 11:16:56;;;;;;;0.50;0.50;;;4.40;99.90;;;;;;5075335;28;20612;-80
2021/11/29 11:19:26;;;;;;;0.50;0.40;;;4.40;99.90;;;;;;5075652;28;20182;-81
2021/11/29 11:21:55;;;;;;;0.50;0.50;;;4.50;99.90;;;;;;5076249;28;20269;-80
2021/11/29 11:24:28;;;;;;;0.47;0.40;;;4.50;99.90;;;;;;5075000;28;20220;-80
2021/11/29 11:26:59;;;;;;;0.40;0.38;;;4.50;99.90;;;;;;5075987;28;20246;-81
2021/11/29 11:29:42;;;;;;;0.40;0.40;;;4.50;99.90;;;;;;5075582;28;20182;-80
2021/11/29 11:32:19;;;;;;;0.50;0.40;;;4.30;99.90;;;;;;5075620;28;20387;-80
2021/11/29 11:34:47;;;;;;;0.40;0.40;;;4.30;99.90;;;;;;5075486;28;20235;-80
2021/11/29 11:37:16;;;;;;;0.45;0.40;;;4.30;99.90;;;;;;5074484;28;20301;-80
2021/11/29 11:39:45;;;;;;;0.50;0.40;;;4.30;99.90;;;;;;5074428;28;20269;-79
2021/11/29 11:42:12;;;;;;;0.70;0.70;;;4.40;99.90;;;;;;5074863;28;20619;-79
2021/11/29 11:44:40;;;;;;;0.47;0.40;;;4.40;99.90;;;;;;5075150;28;20214;-80
2021/11/29 11:47:09;;;;;;;0.40;0.40;;;4.50;99.90;;;;;;5074378;28;20214;-80
2021/11/29 11:49:38;;;;;;;0.60;0.60;;;4.50;99.90;;;;;;5074048;28;20193;-79
2021/11/29 11:52:07;;;;;;;0.40;0.40;;;4.70;99.90;;;;;;5074197;28;20193;-79
2021/11/29 11:54:36;;;;;;;0.50;0.50;;;4.80;99.90;;;;;;5074865;28;20667;-79
2021/11/29 11:57:05;;;;;;;0.50;0.40;;;5.10;99.90;;;;;;5074223;28;20244;-79
2021/11/29 11:59:43;;;;;;;0.50;0.40;;;5.80;99.90;;;;;;5073360;28;20183;-79
2021/11/29 12:02:13;;;;;;;0.50;0.40;;;6.50;99.90;;;;;;5073692;28;20255;-78
2021/11/29 12:04:40;;;;;;;0.50;0.40;;;7.00;99.90;;;;;;5074117;28;20195;-78
2021/11/29 12:07:06;;;;;;;0.50;0.40;;;7.20;99.90;;;;;;5073878;28;20247;-78
2021/11/29 12:09:33;;;;;;;0.50;0.40;;;7.40;99.90;;;;;;5073578;28;20290;-78
2021/11/29 12:12:04;;;;;;;0.50;0.40;;;7.30;99.90;;;;;;5074015;28;20199;-76
2021/11/29 12:14:34;;;;;;;0.50;0.40;;;7.10;99.90;;;;;;5073337;28;20281;-79
2021/11/29 12:17:19;;;;;;;0.90;0.90;;;7.00;99.90;;;;;;5074477;28;20578;-79
2021/11/29 12:19:47;;;;;;;0.50;0.40;;;7.00;99.90;;;;;;5073506;28;20576;-78
2021/11/29 12:22:36;;;;;;;0.50;0.40;;;6.80;99.90;;;;;;5074865;28;20614;-78
2021/11/29 12:25:21;;;;;;;0.50;0.40;;;6.30;99.90;;;;;;5072956;28;20205;-80
2021/11/29 12:27:50;;;;;;;0.50;0.40;;;6.00;99.90;;;;;;5073555;28;20284;-77
2021/11/29 12:30:33;;;;;;;0.50;0.40;;;5.90;99.90;;;;;;5073770;28;20203;-79
2021/11/29 12:33:02;;;;;;;0.50;0.40;;;5.90;99.90;;;;;;5074365;28;20186;-76
2021/11/29 12:35:31;;;;;;;0.50;0.40;;;5.90;99.90;;;;;;5074644;28;20191;-79
2021/11/29 12:38:05;;;;;;;0.50;0.40;;;5.90;99.90;;;;;;5074043;28;20221;-79
2021/11/29 12:40:42;;;;;;;0.50;0.40;;;6.00;99.90;;;;;;5074779;28;20280;-79
2021/11/29 12:43:10;;;;;;;0.50;0.40;;;6.20;99.90;;;;;;5074809;28;20679;-79
2021/11/29 12:45:39;;;;;;;0.50;0.40;;;6.30;99.90;;;;;;5075486;28;20205;-80
2021/11/29 12:48:16;;;;;;;0.50;0.40;;;6.40;99.90;;;;;;5074731;28;20226;-80
2021/11/29 12:51:01;;;;;;;0.50;0.40;;;6.50;99.90;;;;;;5074158;28;20288;-80
2021/11/29 12:53:36;;;;;;;0.50;0.40;;;6.50;99.90;;;;;;5075616;28;20232;-80
2021/11/29 12:56:19;;;;;;;0.50;0.40;;;6.50;99.90;;;;;;5074928;28;20194;-80
2021/11/29 12:59:04;;;;;;;0.50;0.40;;;6.60;99.90;;;;;;5074524;28;20645;-80
2021/11/29 13:01:39;;;;;;;0.50;0.40;;;6.70;99.90;;;;;;5076051;28;20732;-80
2021/11/29 13:04:23;;;;;;;0.50;0.40;;;6.70;99.90;;;;;;5074530;28;20214;-79